Time;durP1;ratioP1;P1;durP2;ratioP2;P2;SDS_P1;SDS_P2;PMS_P1;PMS_P2;Temp;Humidity;BMP_temperature;BMP_pressure;BME280_temperature;BME280_humidity;BME280_pressure;Samples;Min_cycle;Max_cycle;Signal;HPM_P1;HPM_P2
2021/09/21 00:07:49;;;;;;;4.07;1.05;;;10.40;99.90;;;;;;20572355;28;20705;-79
2021/09/21 00:17:52;;;;;;;4.18;1.20;;;10.20;99.90;;;;;;20585521;28;20505;-79
2021/09/21 00:27:53;;;;;;;3.30;1.05;;;10.30;99.90;;;;;;20568727;28;20059;-80
2021/09/21 00:37:54;;;;;;;2.53;1.00;;;10.10;99.90;;;;;;20542820;28;20595;-80
2021/09/21 00:47:57;;;;;;;3.08;1.23;;;9.90;99.90;;;;;;20580453;28;20050;-80
2021/09/21 00:57:58;;;;;;;4.03;1.70;;;10.00;99.90;;;;;;20539007;28;20032;-80
2021/09/21 01:07:59;;;;;;;4.70;1.13;;;10.00;99.90;;;;;;20531361;28;20051;-79
2021/09/21 01:18:00;;;;;;;3.28;1.15;;;9.70;99.90;;;;;;20445917;28;20075;-79
2021/09/21 01:28:01;;;;;;;2.78;1.27;;;9.80;99.90;;;;;;20485325;28;20049;-80
2021/09/21 01:38:02;;;;;;;3.95;1.73;;;9.60;99.90;;;;;;20437388;28;20039;-79
2021/09/21 01:48:04;;;;;;;3.42;0.95;;;9.50;99.90;;;;;;20446933;28;20069;-80
2021/09/21 01:58:29;;;;;;;3.17;1.33;;;9.70;99.90;;;;;;20453969;28;20046;-79
2021/09/21 02:08:31;;;;;;;2.65;1.17;;;9.70;99.90;;;;;;20487364;28;20070;-79
2021/09/21 02:18:32;;;;;;;3.05;0.95;;;9.50;99.90;;;;;;20543588;28;20054;-80
2021/09/21 02:28:34;;;;;;;4.32;1.58;;;9.40;99.90;;;;;;20540817;28;20050;-80
2021/09/21 02:38:35;;;;;;;7.53;1.42;;;9.40;99.90;;;;;;20505869;28;20057;-79
2021/09/21 02:48:37;;;;;;;3.25;1.73;;;9.30;99.90;;;;;;20495695;28;20065;-79
2021/09/21 02:58:39;;;;;;;3.45;1.50;;;9.50;99.90;;;;;;20512576;28;20270;-79
2021/09/21 03:08:41;;;;;;;3.75;1.58;;;9.40;99.90;;;;;;20468413;28;21236;-79
2021/09/21 03:18:42;;;;;;;2.85;1.20;;;9.60;99.90;;;;;;20452354;28;20070;-79
2021/09/21 03:28:44;;;;;;;3.55;1.52;;;9.50;99.90;;;;;;20504776;28;20157;-79
2021/09/21 03:38:45;;;;;;;2.30;0.90;;;9.30;99.90;;;;;;20464665;28;20058;-79
2021/09/21 03:48:47;;;;;;;2.40;1.27;;;9.30;99.90;;;;;;20467027;28;20586;-79
2021/09/21 03:58:48;;;;;;;1.90;0.85;;;9.10;99.90;;;;;;20454715;28;20101;-80
2021/09/21 04:08:52;;;;;;;4.38;1.67;;;9.00;99.90;;;;;;20440638;28;20043;-79
2021/09/21 04:18:53;;;;;;;3.13;1.20;;;8.90;99.90;;;;;;20504763;28;20119;-81
2021/09/21 04:28:54;;;;;;;4.40;1.42;;;8.90;99.90;;;;;;20450245;28;20555;-79
2021/09/21 04:38:55;;;;;;;3.17;1.33;;;8.80;99.90;;;;;;20441139;28;20047;-79
2021/09/21 04:48:56;;;;;;;3.60;1.60;;;8.80;99.90;;;;;;20372396;28;21176;-79
2021/09/21 04:58:57;;;;;;;5.70;1.65;;;8.70;99.90;;;;;;20400149;28;20042;-79
2021/09/21 05:08:59;;;;;;;3.50;1.23;;;8.80;99.90;;;;;;20408483;28;20039;-79
2021/09/21 05:19:00;;;;;;;2.85;1.27;;;8.80;99.90;;;;;;20376399;28;20043;-79
2021/09/21 05:29:04;;;;;;;3.67;1.42;;;8.70;99.90;;;;;;20450582;28;20045;-80
2021/09/21 05:39:05;;;;;;;2.85;1.33;;;8.60;99.90;;;;;;20494253;28;20038;-80
2021/09/21 05:49:07;;;;;;;4.75;1.73;;;8.80;99.90;;;;;;20556079;28;20054;-80
2021/09/21 05:59:11;;;;;;;4.78;2.33;;;8.60;99.90;;;;;;20483106;28;20061;-80
2021/09/21 06:09:12;;;;;;;4.70;2.05;;;8.70;99.90;;;;;;20507291;28;20047;-79
2021/09/21 06:19:13;;;;;;;5.90;2.92;;;8.80;99.90;;;;;;20503572;28;20047;-80
2021/09/21 06:29:15;;;;;;;62.28;25.70;;;9.10;99.90;;;;;;20579049;28;20085;-81
2021/09/21 06:39:16;;;;;;;9.68;3.10;;;9.20;99.90;;;;;;20511826;28;20058;-80
2021/09/21 06:49:18;;;;;;;4.88;2.20;;;9.50;99.90;;;;;;20519006;28;20042;-80
2021/09/21 06:59:19;;;;;;;5.95;2.22;;;9.80;99.90;;;;;;20516859;28;20061;-80
2021/09/21 07:09:20;;;;;;;5.53;2.55;;;10.20;99.90;;;;;;20494096;28;20059;-81
2021/09/21 07:19:21;;;;;;;7.00;3.08;;;10.60;99.90;;;;;;20414558;28;20064;-81
2021/09/21 07:29:22;;;;;;;5.07;2.10;;;11.10;99.90;;;;;;20460294;28;20070;-81
2021/09/21 07:39:24;;;;;;;6.03;2.47;;;11.50;99.90;;;;;;20425532;28;20052;-81
2021/09/21 07:49:26;;;;;;;4.10;1.67;;;11.70;99.90;;;;;;20432426;28;20050;-82
2021/09/21 07:59:27;;;;;;;4.60;1.55;;;11.80;99.90;;;;;;20404165;28;20071;-81
2021/09/21 08:09:28;;;;;;;6.68;2.20;;;12.00;99.90;;;;;;20382024;28;20044;-82
2021/09/21 08:19:30;;;;;;;5.25;2.05;;;12.20;99.90;;;;;;20405477;28;20056;-82
2021/09/21 08:29:31;;;;;;;4.82;1.88;;;12.60;99.90;;;;;;20425894;28;20047;-82
2021/09/21 08:39:32;;;;;;;6.60;1.98;;;13.00;99.90;;;;;;20382933;28;20063;-82
2021/09/21 08:49:33;;;;;;;15.88;7.10;;;13.50;99.90;;;;;;20435060;28;20055;-83
2021/09/21 08:59:37;;;;;;;4.68;1.75;;;14.00;99.90;;;;;;20432871;28;20053;-81
2021/09/21 09:09:38;;;;;;;3.28;1.20;;;14.50;99.90;;;;;;20482060;28;20045;-84
2021/09/21 09:19:50;;;;;;;4.75;1.50;;;14.60;99.90;;;;;;20502039;28;20460;-80
2021/09/21 09:29:59;;;;;;;3.70;1.35;;;14.90;99.90;;;;;;20433621;28;20494;-80
2021/09/21 09:40:01;;;;;;;2.75;1.38;;;15.10;99.90;;;;;;20478954;28;20093;-80
2021/09/21 09:50:10;;;;;;;3.47;1.38;;;15.40;99.90;;;;;;20538919;28;20047;-80
2021/09/21 10:00:12;;;;;;;2.92;1.40;;;15.70;99.90;;;;;;20599160;28;20049;-80
2021/09/21 10:10:16;;;;;;;4.25;1.00;;;15.90;99.90;;;;;;20545954;28;20124;-80
2021/09/21 10:20:17;;;;;;;1.83;0.80;;;16.00;99.90;;;;;;20564025;28;20070;-80
2021/09/21 10:30:22;;;;;;;3.42;1.08;;;16.20;99.90;;;;;;20567461;28;20041;-82
2021/09/21 10:40:47;;;;;;;2.88;1.17;;;16.60;99.90;;;;;;20636693;28;20050;-80
2021/09/21 10:50:59;;;;;;;3.40;1.15;;;16.80;99.90;;;;;;20554622;28;20049;-80
2021/09/21 11:01:01;;;;;;;2.25;0.82;;;17.20;99.90;;;;;;20514791;28;20073;-80
2021/09/21 11:11:04;;;;;;;2.03;0.60;;;17.70;99.90;;;;;;20600050;28;20049;-81
2021/09/21 11:21:07;;;;;;;4.22;1.83;;;18.20;99.90;;;;;;20559111;28;20054;-80
2021/09/21 11:31:09;;;;;;;3.35;0.90;;;18.60;99.90;;;;;;20578710;28;20070;-79
2021/09/21 11:41:11;;;;;;;3.58;0.60;;;19.10;99.90;;;;;;20574947;28;20398;-79
2021/09/21 11:51:12;;;;;;;1.63;0.50;;;19.10;99.90;;;;;;20608270;28;20046;-79
2021/09/21 12:01:13;;;;;;;2.08;0.50;;;19.70;99.90;;;;;;20590295;28;20073;-79
2021/09/21 12:11:16;;;;;;;1.40;0.50;;;19.90;99.90;;;;;;20560370;28;20042;-79
2021/09/21 12:21:18;;;;;;;1.42;0.50;;;20.40;99.90;;;;;;20591832;28;20042;-79
2021/09/21 12:31:24;;;;;;;0.85;0.30;;;20.50;99.40;;;;;;20571483;28;20058;-79
2021/09/21 12:41:26;;;;;;;0.77;0.30;;;20.60;99.70;;;;;;20523254;28;20047;-79
2021/09/21 12:51:43;;;;;;;1.92;0.50;;;20.40;99.90;;;;;;20559573;28;20042;-79
2021/09/21 13:01:48;;;;;;;1.27;0.53;;;20.30;98.90;;;;;;20574082;28;20113;-79
2021/09/21 13:11:50;;;;;;;1.58;0.73;;;20.50;99.90;;;;;;20564799;28;20424;-78
2021/09/21 13:21:51;;;;;;;4.07;0.82;;;20.70;99.90;;;;;;20510574;28;20056;-79
2021/09/21 13:31:52;;;;;;;1.58;0.60;;;20.80;99.50;;;;;;20531487;28;20056;-79
2021/09/21 13:41:54;;;;;;;2.38;0.70;;;20.90;99.50;;;;;;20482845;28;20055;-78
2021/09/21 13:51:57;;;;;;;3.13;1.20;;;20.60;99.90;;;;;;20516306;28;20053;-79
2021/09/21 14:02:04;;;;;;;1.58;0.50;;;21.10;98.60;;;;;;20511515;28;20055;-79
2021/09/21 14:12:05;;;;;;;2.88;1.30;;;21.40;99.90;;;;;;20498676;28;20046;-82
2021/09/21 14:22:08;;;;;;;3.75;1.45;;;21.10;99.90;;;;;;20541566;28;20051;-82
2021/09/21 14:32:10;;;;;;;2.00;1.23;;;20.00;99.90;;;;;;20537877;28;20057;-79
2021/09/21 14:42:11;;;;;;;4.22;1.38;;;19.90;99.90;;;;;;20495494;28;20055;-81
2021/09/21 14:52:12;;;;;;;2.10;1.02;;;20.10;99.90;;;;;;20505825;28;20051;-81
2021/09/21 15:02:13;;;;;;;1.95;0.63;;;19.70;99.90;;;;;;20509920;28;20887;-80
2021/09/21 15:12:14;;;;;;;2.22;0.80;;;19.60;99.90;;;;;;20455080;28;20039;-82
2021/09/21 15:22:15;;;;;;;1.90;0.80;;;19.30;99.90;;;;;;20465241;28;20050;-81
2021/09/21 15:32:16;;;;;;;2.50;0.70;;;19.20;99.90;;;;;;20429049;28;20449;-80
2021/09/21 15:42:18;;;;;;;1.60;0.75;;;19.20;99.90;;;;;;20459975;28;20046;-80
2021/09/21 15:52:19;;;;;;;1.80;0.80;;;19.00;99.90;;;;;;20385581;28;20073;-79
2021/09/21 16:02:21;;;;;;;3.67;1.38;;;19.00;99.90;;;;;;20414303;28;20043;-80
2021/09/21 16:12:22;;;;;;;3.60;1.48;;;18.90;99.90;;;;;;20412002;28;20048;-80
2021/09/21 16:22:23;;;;;;;2.22;0.90;;;18.70;99.90;;;;;;20453168;28;20064;-80
2021/09/21 16:32:24;;;;;;;2.85;1.17;;;18.40;99.90;;;;;;20434774;28;20043;-80
2021/09/21 16:42:27;;;;;;;3.22;1.35;;;18.20;99.90;;;;;;20410050;28;20054;-79
2021/09/21 16:52:28;;;;;;;3.05;1.35;;;18.00;99.90;;;;;;20414974;28;20582;-79
2021/09/21 17:02:36;;;;;;;5.00;1.83;;;17.80;99.90;;;;;;20419881;28;20066;-79
2021/09/21 17:12:38;;;;;;;3.00;1.50;;;17.70;99.90;;;;;;20375441;28;20039;-79
2021/09/21 17:22:39;;;;;;;3.38;1.25;;;17.50;99.90;;;;;;20514875;28;20134;-80
2021/09/21 17:32:40;;;;;;;3.00;1.45;;;17.20;99.90;;;;;;20468774;28;20051;-79
2021/09/21 17:42:50;;;;;;;3.97;1.77;;;17.10;99.90;;;;;;20505070;28;20055;-81
2021/09/21 17:52:52;;;;;;;4.40;1.73;;;16.80;99.90;;;;;;20445023;28;20047;-81
2021/09/21 18:03:00;;;;;;;5.40;2.67;;;16.70;99.90;;;;;;20422293;28;20065;-81
2021/09/21 18:13:02;;;;;;;8.20;3.50;;;16.40;99.90;;;;;;20403383;28;20488;-81
2021/09/21 18:23:18;;;;;;;12.25;3.97;;;16.20;99.90;;;;;;20409517;28;20056;-82
2021/09/21 18:33:19;;;;;;;5.88;2.72;;;16.00;99.90;;;;;;20432252;28;20340;-79
2021/09/21 18:43:22;;;;;;;6.47;2.53;;;15.80;99.90;;;;;;20492119;28;20050;-80
2021/09/21 18:53:23;;;;;;;8.68;3.78;;;15.50;99.90;;;;;;20545132;28;20055;-80
2021/09/21 19:03:24;;;;;;;9.38;3.55;;;15.40;99.90;;;;;;20544280;28;20046;-80
2021/09/21 19:13:25;;;;;;;7.63;3.13;;;15.20;99.90;;;;;;20480704;28;20052;-82
2021/09/21 19:23:27;;;;;;;5.78;2.88;;;15.10;99.90;;;;;;20467558;28;20054;-80
2021/09/21 19:33:28;;;;;;;9.77;3.80;;;14.90;99.90;;;;;;20500988;28;20054;-80
2021/09/21 19:43:29;;;;;;;7.78;3.05;;;14.70;99.90;;;;;;20408812;28;20056;-81
2021/09/21 19:53:30;;;;;;;10.45;3.90;;;14.50;99.90;;;;;;20431464;28;20059;-83
2021/09/21 20:03:32;;;;;;;10.18;3.30;;;14.50;99.90;;;;;;20393177;28;20467;-81
2021/09/21 20:13:33;;;;;;;8.30;3.97;;;14.30;99.90;;;;;;20496498;28;20288;-80
2021/09/21 20:23:34;;;;;;;12.23;3.53;;;14.30;99.90;;;;;;20475168;28;20067;-80
2021/09/21 20:33:40;;;;;;;6.45;3.47;;;14.20;99.90;;;;;;20519885;28;20399;-79
2021/09/21 20:43:41;;;;;;;10.60;4.47;;;14.10;99.90;;;;;;20450118;28;20087;-80
2021/09/21 20:53:42;;;;;;;7.95;3.30;;;14.00;99.90;;;;;;20477520;28;20062;-81
2021/09/21 21:03:43;;;;;;;9.82;3.67;;;13.90;99.90;;;;;;20411929;28;20036;-80
2021/09/21 21:13:44;;;;;;;11.40;3.90;;;13.90;99.90;;;;;;20421620;28;20133;-79
2021/09/21 21:23:46;;;;;;;10.55;4.05;;;13.70;99.90;;;;;;20409953;28;20065;-80
2021/09/21 21:33:47;;;;;;;9.48;4.25;;;13.70;99.90;;;;;;20420575;28;20027;-80
2021/09/21 21:43:49;;;;;;;11.18;4.63;;;13.60;99.90;;;;;;20443707;28;20062;-79
2021/09/21 21:53:50;;;;;;;9.90;4.22;;;13.50;99.90;;;;;;20466367;28;20046;-80
2021/09/21 22:03:51;;;;;;;13.15;5.63;;;13.40;99.90;;;;;;20403705;28;20160;-79
2021/09/21 22:13:53;;;;;;;11.15;5.55;;;13.30;99.90;;;;;;20426214;28;20053;-79
2021/09/21 22:23:54;;;;;;;11.65;6.30;;;13.30;99.90;;;;;;20463845;28;20043;-80
2021/09/21 22:33:55;;;;;;;14.73;5.43;;;13.30;99.90;;;;;;20491874;28;20058;-80
2021/09/21 22:43:56;;;;;;;15.45;6.32;;;13.20;99.90;;;;;;20456489;28;1178664;-80
2021/09/21 22:53:58;;;;;;;14.32;5.70;;;13.10;99.90;;;;;;20471621;28;20056;-79
2021/09/21 23:04:03;;;;;;;12.85;5.30;;;13.00;99.90;;;;;;20499847;28;20054;-81
2021/09/21 23:14:04;;;;;;;16.85;5.63;;;12.90;99.90;;;;;;20505754;28;20046;-79
2021/09/21 23:24:07;;;;;;;14.80;5.82;;;12.70;99.90;;;;;;20494596;28;20075;-81
2021/09/21 23:34:08;;;;;;;13.63;6.05;;;12.60;99.90;;;;;;20500427;28;21230;-80
2021/09/21 23:44:09;;;;;;;14.75;5.97;;;12.60;99.90;;;;;;20517912;28;20059;-81
2021/09/21 23:54:10;;;;;;;15.45;6.93;;;12.50;99.90;;;;;;20508021;28;20415;-81
